createdAt,value
2018-12-22T00:10:47.161Z,99.23
2018-12-22T00:23:51.110Z,92.53
2018-12-22T00:39:58.891Z,88.00
2018-12-22T00:43:13.605Z,88.00
2018-12-22T00:46:18.523Z,85.73
2018-12-22T00:52:33.900Z,83.40
2018-12-22T01:02:11.326Z,83.10
2018-12-22T01:08:47.039Z,79.83
2018-12-22T01:28:04.638Z,74.40
2018-12-22T01:37:47.998Z,71.30
2018-12-22T01:53:57.310Z,66.87
2018-12-22T02:09:43.676Z,63.27
2018-12-22T02:12:56.574Z,60.53
2018-12-22T02:16:12.670Z,61.20
2018-12-22T02:25:51.724Z,59.27
2018-12-22T02:36:19.935Z,55.20
2018-12-22T02:39:33.678Z,54.83
2018-12-22T02:59:06.616Z,49.67
2018-12-22T03:02:25.346Z,50.87
2018-12-22T03:21:58.847Z,47.17
2018-12-22T03:25:16.446Z,45.37
2018-12-22T03:28:05.081Z,44.57
2018-12-22T03:31:16.743Z,44.13
2018-12-22T03:40:59.823Z,43.17
2018-12-22T03:50:02.479Z,40.33
2018-12-22T03:53:17.244Z,40.07
2018-12-22T04:02:57.545Z,43.57
2018-12-22T04:06:06.035Z,48.90
2018-12-22T04:09:08.896Z,49.57
2018-12-22T04:15:26.116Z,54.57
2018-12-22T04:25:00.823Z,53.23
2018-12-22T04:28:15.071Z,55.73
2018-12-22T04:31:27.881Z,53.57
2018-12-22T04:41:17.412Z,57.40
2018-12-22T04:54:16.908Z,56.80
2018-12-22T05:00:34.979Z,55.17
2018-12-22T05:07:10.117Z,56.43
2018-12-22T05:10:16.544Z,53.07
2018-12-22T05:19:51.256Z,52.13
2018-12-22T05:29:40.067Z,52.40
2018-12-22T05:32:43.773Z,51.87
2018-12-22T05:55:27.876Z,48.10
2018-12-22T06:15:22.978Z,44.57
2018-12-22T06:21:55.903Z,43.93
2018-12-22T06:28:22.565Z,43.13
2018-12-22T06:34:48.889Z,41.83
2018-12-22T06:41:18.123Z,41.67
2018-12-22T06:47:53.616Z,39.80
2018-12-22T06:51:08.758Z,38.50
2018-12-22T06:54:24.389Z,38.70
2018-12-22T06:57:38.438Z,38.47
2018-12-22T07:00:51.895Z,37.47
2018-12-22T07:07:24.767Z,37.77
2018-12-22T07:20:26.714Z,35.07
2018-12-22T07:26:31.017Z,33.87
2018-12-22T07:33:07.033Z,33.80
2018-12-22T07:45:59.686Z,31.30
2018-12-22T07:52:27.878Z,31.57
2018-12-22T07:55:28.362Z,31.13
2018-12-22T08:18:01.218Z,27.73
2018-12-22T08:34:03.183Z,33.17
2018-12-22T08:37:11.280Z,35.37
2018-12-22T08:40:25.038Z,34.60
2018-12-22T08:43:34.102Z,33.70
2018-12-22T08:50:11.011Z,38.13
2018-12-22T08:59:49.765Z,33.93
2018-12-22T09:09:45.762Z,38.70
2018-12-22T09:12:43.764Z,40.90
2018-12-22T09:15:59.302Z,40.73
2018-12-22T09:19:17.800Z,38.23
2018-12-22T09:22:34.789Z,43.03
2018-12-22T09:32:23.672Z,35.00
2018-12-22T09:42:01.942Z,30.10
2018-12-22T09:55:11.313Z,30.50
2018-12-22T09:58:10.209Z,32.40
2018-12-22T10:04:34.570Z,32.53
2018-12-22T10:14:32.729Z,34.90
2018-12-22T10:17:49.004Z,35.93
2018-12-22T10:27:18.851Z,33.27
2018-12-22T10:30:26.055Z,37.20
2018-12-22T10:43:04.027Z,43.83
2018-12-22T10:45:33.467Z,40.07
2018-12-22T10:48:02.860Z,43.30
2018-12-22T10:50:32.235Z,41.33
2018-12-22T10:53:02.239Z,42.93
2018-12-22T10:55:31.735Z,42.07
2018-12-22T10:58:01.119Z,43.60
2018-12-22T11:00:30.509Z,40.40
2018-12-22T11:03:00.081Z,40.63
2018-12-22T11:05:29.469Z,40.40
2018-12-22T11:07:58.877Z,41.00
2018-12-22T11:10:28.784Z,40.70
2018-12-22T11:13:00.307Z,40.83
2018-12-22T11:15:30.822Z,41.40
2018-12-22T11:18:00.757Z,42.97
2018-12-22T11:20:30.153Z,42.50
2018-12-22T11:22:59.581Z,43.43
2018-12-22T11:25:29.053Z,40.43
2018-12-22T11:27:59.327Z,43.30
2018-12-22T11:30:32.978Z,42.63
2018-12-22T11:33:03.499Z,42.17
2018-12-22T11:35:34.030Z,41.80
2018-12-22T11:38:03.436Z,42.47
2018-12-22T11:40:32.852Z,43.00
2018-12-22T11:43:02.285Z,43.57
2018-12-22T11:45:31.656Z,43.43
2018-12-22T11:48:13.111Z,42.67
2018-12-22T11:50:42.516Z,38.63
2018-12-22T11:53:12.008Z,38.20
2018-12-22T11:55:41.390Z,37.23
2018-12-22T11:58:10.800Z,37.30
2018-12-22T12:00:40.184Z,38.70
2018-12-22T12:03:09.584Z,36.40
2018-12-22T12:05:39.092Z,37.83
2018-12-22T12:08:09.559Z,39.27
2018-12-22T12:10:38.940Z,41.67
2018-12-22T12:13:08.332Z,38.80
2018-12-22T12:15:45.824Z,40.07
2018-12-22T12:18:22.392Z,39.80
2018-12-22T12:20:51.782Z,42.80
2018-12-22T12:23:21.168Z,41.23
2018-12-22T12:25:50.572Z,42.90
2018-12-22T12:28:20.056Z,41.50
2018-12-22T12:30:49.453Z,43.83
2018-12-22T12:33:18.916Z,41.23
2018-12-22T12:35:48.304Z,40.50
2018-12-22T12:38:17.740Z,42.07
2018-12-22T12:40:47.144Z,42.67
2018-12-22T12:43:16.566Z,41.70
2018-12-22T12:45:45.996Z,43.10
2018-12-22T12:48:15.428Z,43.23
2018-12-22T12:50:45.021Z,44.10
2018-12-22T12:53:14.429Z,41.63
2018-12-22T12:55:43.840Z,41.57
2018-12-22T12:58:13.265Z,41.53
2018-12-22T13:00:42.773Z,41.13
2018-12-22T13:03:13.644Z,43.03
2018-12-22T13:05:43.291Z,44.23
2018-12-22T13:08:12.733Z,43.73
2018-12-22T13:10:42.124Z,43.13
2018-12-22T13:13:16.389Z,43.00
2018-12-22T13:15:45.845Z,42.93
2018-12-22T13:18:15.307Z,43.50
2018-12-22T13:20:44.705Z,43.40
2018-12-22T13:23:14.245Z,43.10
2018-12-22T13:25:43.639Z,43.57
2018-12-22T13:28:13.045Z,44.83
2018-12-22T13:30:42.460Z,44.83
2018-12-22T13:33:12.226Z,46.83
2018-12-22T13:35:41.788Z,46.93
2018-12-22T13:38:11.192Z,43.83
2018-12-22T13:40:40.589Z,45.83
2018-12-22T13:43:10.040Z,45.93
2018-12-22T13:45:39.444Z,48.40
2018-12-22T13:48:09.025Z,47.90
2018-12-22T13:50:39.166Z,46.87
2018-12-22T13:53:08.696Z,47.17
2018-12-22T13:55:38.103Z,46.47
2018-12-22T13:58:07.500Z,46.00
2018-12-22T14:00:45.190Z,47.37
2018-12-22T14:03:18.670Z,50.67
2018-12-22T14:05:48.239Z,50.23
2018-12-22T14:08:17.632Z,53.57
2018-12-22T14:10:47.076Z,50.23
2018-12-22T14:13:16.589Z,53.53
2018-12-22T14:15:54.022Z,53.93
2018-12-22T14:19:04.052Z,54.37
2018-12-22T14:21:33.481Z,51.93
2018-12-22T14:24:19.149Z,52.57
2018-12-22T14:26:49.096Z,53.50
2018-12-22T14:29:18.547Z,51.47
2018-12-22T14:31:47.956Z,53.23
2018-12-22T14:34:23.910Z,52.00
2018-12-22T14:36:53.292Z,53.03
2018-12-22T14:39:22.687Z,53.67
2018-12-22T14:41:52.068Z,51.83
2018-12-22T14:44:21.485Z,53.17
2018-12-22T14:46:50.879Z,56.57
2018-12-22T14:49:20.292Z,52.73
2018-12-22T14:51:49.681Z,55.70
2018-12-22T14:54:19.098Z,55.33
2018-12-22T14:56:48.493Z,56.43
2018-12-22T14:59:20.141Z,55.03
2018-12-22T15:01:52.899Z,53.37
2018-12-22T15:04:22.424Z,53.50
2018-12-22T15:06:51.815Z,52.50
2018-12-22T15:09:21.245Z,53.77
2018-12-22T15:11:50.652Z,51.07
2018-12-22T15:14:20.084Z,51.77
2018-12-22T15:16:49.509Z,50.67
2018-12-22T15:19:18.972Z,49.43
2018-12-22T15:21:52.259Z,51.00
2018-12-22T15:24:21.671Z,50.10
2018-12-22T15:26:51.056Z,49.47
2018-12-22T15:29:20.520Z,47.23
2018-12-22T15:31:49.964Z,52.13
2018-12-22T15:34:19.348Z,46.37
2018-12-22T15:36:48.724Z,45.40
2018-12-22T15:39:18.160Z,46.00
2018-12-22T15:41:47.556Z,49.33
2018-12-22T15:44:17.008Z,49.43
2018-12-22T15:46:46.443Z,50.63
2018-12-22T15:49:17.412Z,50.07
2018-12-22T15:51:46.813Z,51.40
2018-12-22T15:54:16.200Z,53.53
2018-12-22T15:56:45.644Z,64.27
2018-12-22T15:59:15.047Z,55.47
2018-12-22T16:01:44.444Z,61.40
2018-12-22T16:04:15.812Z,58.20
2018-12-22T16:06:45.221Z,60.90
2018-12-22T16:09:14.708Z,59.77
2018-12-22T16:11:44.096Z,60.57
2018-12-22T16:14:13.480Z,62.73
2018-12-22T16:16:42.920Z,60.47
2018-12-22T16:19:12.346Z,63.93
2018-12-22T16:21:41.839Z,64.47
2018-12-22T16:24:11.294Z,67.40
2018-12-22T16:26:40.729Z,69.07
2018-12-22T16:29:15.537Z,65.67
2018-12-22T16:31:44.996Z,64.47
2018-12-22T16:34:14.395Z,67.67
2018-12-22T16:36:43.803Z,63.80
2018-12-22T16:39:13.229Z,71.43
2018-12-22T16:41:42.603Z,67.10
2018-12-22T16:44:16.404Z,71.83
2018-12-22T16:46:45.864Z,77.67
2018-12-22T16:49:15.420Z,76.13
2018-12-22T16:51:44.905Z,80.37
2018-12-22T16:54:14.347Z,81.97
2018-12-22T16:56:43.749Z,87.60
2018-12-22T16:59:13.232Z,91.00
2018-12-22T17:01:48.840Z,97.20
2018-12-22T17:04:18.347Z,99.40
2018-12-22T17:06:47.805Z,106.10
2018-12-22T17:09:17.229Z,101.10
2018-12-22T17:11:46.631Z,94.67
2018-12-22T17:14:16.245Z,102.43
2018-12-22T17:16:46.281Z,107.77
2018-12-22T17:19:15.711Z,103.33
2018-12-22T17:22:51.497Z,105.60
2018-12-22T17:25:27.355Z,103.47
2018-12-22T17:27:56.744Z,103.63
2018-12-22T17:30:26.141Z,106.93
2018-12-22T17:32:55.521Z,108.30
2018-12-22T17:35:24.984Z,104.77
2018-12-22T17:37:54.393Z,107.20
2018-12-22T17:40:23.828Z,104.47
2018-12-22T17:42:53.232Z,107.10
2018-12-22T17:45:22.787Z,112.23
2018-12-22T17:47:52.208Z,108.63
2018-12-22T17:50:21.632Z,109.90
2018-12-22T17:52:51.085Z,106.63
2018-12-22T17:55:20.824Z,104.70
2018-12-22T17:57:50.222Z,110.30
2018-12-22T18:00:20.446Z,109.07
2018-12-22T18:02:50.039Z,109.70
2018-12-22T18:05:19.481Z,109.97
2018-12-22T18:07:48.928Z,114.67
2018-12-22T18:10:18.372Z,123.87
2018-12-22T18:12:48.923Z,133.87
2018-12-22T18:15:20.957Z,134.83
2018-12-22T18:17:50.365Z,133.13
2018-12-22T18:20:19.768Z,132.17
2018-12-22T18:22:49.174Z,130.70
2018-12-22T18:25:19.111Z,128.37
2018-12-22T18:27:48.728Z,126.90
2018-12-22T18:30:18.218Z,124.50
2018-12-22T18:32:47.739Z,125.73
2018-12-22T18:35:17.205Z,123.43
2018-12-22T18:37:46.642Z,120.73
2018-12-22T18:40:18.795Z,118.20
2018-12-22T18:42:48.336Z,120.70
2018-12-22T18:45:17.759Z,114.60
2018-12-22T18:47:47.200Z,113.80
2018-12-22T18:50:20.765Z,113.30
2018-12-22T18:52:50.177Z,109.50
2018-12-22T18:55:19.597Z,110.20
2018-12-22T18:57:51.805Z,107.60
2018-12-22T19:00:22.672Z,107.80
2018-12-22T19:02:52.539Z,103.93
2018-12-22T19:05:22.864Z,105.10
2018-12-22T19:07:55.359Z,100.57
2018-12-22T19:10:30.270Z,101.03
2018-12-22T19:12:59.718Z,98.73
2018-12-22T19:15:29.113Z,98.20
2018-12-22T19:17:58.512Z,102.80
2018-12-22T19:20:34.279Z,103.13
2018-12-22T19:23:04.616Z,98.67
2018-12-22T19:25:34.032Z,99.50
2018-12-22T19:28:03.431Z,104.17
2018-12-22T19:30:32.829Z,99.90
2018-12-22T19:33:02.272Z,102.33
2018-12-22T19:35:31.690Z,98.07
2018-12-22T19:38:01.100Z,97.87
2018-12-22T19:40:30.536Z,97.87
2018-12-22T19:43:00.078Z,97.57
2018-12-22T19:45:29.513Z,95.27
2018-12-22T19:47:58.893Z,95.63
2018-12-22T19:50:28.473Z,94.13
2018-12-22T19:52:57.869Z,94.67
2018-12-22T19:55:27.305Z,89.80
2018-12-22T19:58:21.409Z,90.53
2018-12-22T20:04:50.676Z,83.00
2018-12-22T20:07:24.628Z,81.17
2018-12-22T20:09:54.082Z,80.50
2018-12-22T20:12:23.711Z,80.70
2018-12-22T20:14:53.120Z,83.67
2018-12-22T20:17:22.573Z,84.80
2018-12-22T20:23:46.678Z,81.73
2018-12-22T20:43:09.569Z,88.60
2018-12-22T20:46:20.754Z,89.13
2018-12-22T20:56:03.436Z,87.30
2018-12-22T21:02:14.456Z,85.00
2018-12-22T21:08:45.147Z,81.10
2018-12-22T21:11:17.648Z,78.13
2018-12-22T21:13:47.049Z,80.03
2018-12-22T21:16:16.462Z,78.13
2018-12-22T21:18:46.084Z,78.87
2018-12-22T21:21:15.689Z,79.63
2018-12-22T21:23:45.084Z,75.67
2018-12-22T21:26:14.469Z,75.83
2018-12-22T21:28:43.896Z,74.17
2018-12-22T21:31:13.557Z,72.83
2018-12-22T21:33:42.968Z,71.33
2018-12-22T21:36:12.486Z,72.30
2018-12-22T21:38:42.081Z,71.23
2018-12-22T21:41:11.640Z,70.60
2018-12-22T21:43:41.264Z,68.67
2018-12-22T21:46:10.897Z,68.23
2018-12-22T21:48:40.287Z,67.43
2018-12-22T21:51:09.889Z,67.40
2018-12-22T21:53:39.332Z,63.40
2018-12-22T21:56:12.168Z,65.30
2018-12-22T21:58:41.747Z,64.87
2018-12-22T22:01:11.333Z,66.70
2018-12-22T22:03:40.728Z,62.77
2018-12-22T22:06:10.177Z,64.13
2018-12-22T22:08:39.580Z,60.97
2018-12-22T22:11:08.996Z,60.83
2018-12-22T22:13:38.525Z,59.17
2018-12-22T22:16:08.052Z,62.20
2018-12-22T22:18:37.461Z,60.00
2018-12-22T22:21:06.883Z,59.37
2018-12-22T22:23:36.276Z,59.23
2018-12-22T22:26:05.812Z,58.37
2018-12-22T22:28:35.192Z,57.33
2018-12-22T22:31:04.606Z,56.70
2018-12-22T22:33:33.996Z,57.27
2018-12-22T22:36:19.179Z,58.00
2018-12-22T22:39:05.292Z,56.10
2018-12-22T22:41:36.295Z,54.33
2018-12-22T22:44:06.136Z,54.53
2018-12-22T22:46:40.207Z,53.83
2018-12-22T22:49:09.809Z,52.93
2018-12-22T22:51:46.038Z,53.57
2018-12-22T22:54:22.505Z,52.93
2018-12-22T22:56:55.504Z,52.40
2018-12-22T22:59:24.941Z,51.93
2018-12-22T23:01:54.465Z,51.40
2018-12-22T23:04:23.921Z,50.43
2018-12-22T23:06:53.393Z,48.90
2018-12-22T23:09:22.840Z,48.87
2018-12-22T23:11:52.324Z,50.33
2018-12-22T23:14:21.768Z,47.87
2018-12-22T23:16:51.220Z,49.63
2018-12-22T23:19:20.703Z,47.70
2018-12-22T23:21:50.159Z,47.80
2018-12-22T23:24:19.606Z,46.87
2018-12-22T23:26:49.051Z,46.03
2018-12-22T23:29:18.504Z,46.13
2018-12-22T23:31:47.989Z,45.90
2018-12-22T23:34:17.441Z,45.13
2018-12-22T23:36:46.864Z,44.37
2018-12-22T23:39:16.473Z,43.97
2018-12-22T23:41:45.924Z,43.17
2018-12-22T23:44:15.392Z,43.13
2018-12-22T23:46:44.831Z,44.00
2018-12-22T23:49:14.287Z,43.20
2018-12-22T23:51:43.729Z,42.57
2018-12-22T23:54:13.221Z,42.13
2018-12-22T23:56:42.692Z,42.33
2018-12-22T23:59:12.467Z,41.30
